createdAt,value
2023-05-07T00:01:20.337Z,29.13
2023-05-07T00:03:49.243Z,27.67
2023-05-07T00:06:18.689Z,27.57
2023-05-07T00:08:47.767Z,31.53
2023-05-07T00:11:16.494Z,28.47
2023-05-07T00:13:45.154Z,30.13
2023-05-07T00:16:13.718Z,28.93
2023-05-07T00:18:43.847Z,36.03
2023-05-07T00:21:12.831Z,30.13
2023-05-07T00:23:41.552Z,27.20
2023-05-07T00:26:10.052Z,24.40
2023-05-07T00:28:39.389Z,28.33
2023-05-07T00:31:08.334Z,30.90
2023-05-07T00:33:36.981Z,30.53
2023-05-07T00:36:07.768Z,33.77
2023-05-07T00:38:36.549Z,30.10
2023-05-07T00:41:05.166Z,29.77
2023-05-07T00:43:34.583Z,31.20
2023-05-07T00:46:03.832Z,31.47
2023-05-07T00:48:33.140Z,30.87
2023-05-07T00:51:01.858Z,31.37
2023-05-07T00:53:32.930Z,31.87
2023-05-07T00:56:02.123Z,35.83
2023-05-07T00:58:31.496Z,37.13
2023-05-07T01:01:00.530Z,33.13
2023-05-07T01:03:29.715Z,31.33
2023-05-07T01:06:01.482Z,29.13
2023-05-07T01:08:37.245Z,28.43
2023-05-07T01:11:06.592Z,28.50
2023-05-07T01:13:36.815Z,32.63
2023-05-07T01:16:08.040Z,28.93
2023-05-07T01:18:36.868Z,37.30
2023-05-07T01:21:07.624Z,35.90
2023-05-07T01:23:38.598Z,30.00
2023-05-07T01:26:07.440Z,32.07
2023-05-07T01:28:36.785Z,31.97
2023-05-07T01:31:07.441Z,28.60
2023-05-07T01:33:40.640Z,28.57
2023-05-07T01:36:11.882Z,29.90
2023-05-07T01:38:43.861Z,33.40
2023-05-07T01:41:14.246Z,31.93
2023-05-07T01:43:45.073Z,40.27
2023-05-07T01:46:15.828Z,27.63
2023-05-07T01:48:47.232Z,31.30
2023-05-07T01:51:16.332Z,30.37
2023-05-07T01:53:49.509Z,29.33
2023-05-07T01:56:18.296Z,25.43
2023-05-07T01:58:48.321Z,31.90
2023-05-07T02:01:17.554Z,27.73
2023-05-07T02:03:46.864Z,29.77
2023-05-07T02:06:22.919Z,28.10
2023-05-07T02:08:54.871Z,32.60
2023-05-07T02:11:24.082Z,31.53
2023-05-07T02:13:54.515Z,31.50
2023-05-07T02:16:24.124Z,30.93
2023-05-07T02:18:54.105Z,29.90
2023-05-07T02:21:22.756Z,26.80
2023-05-07T02:23:51.740Z,22.43
2023-05-07T02:26:23.082Z,22.63
2023-05-07T02:28:51.984Z,30.20
2023-05-07T02:31:20.643Z,27.10
2023-05-07T02:33:49.729Z,27.17
2023-05-07T02:36:19.026Z,24.33
2023-05-07T02:39:04.167Z,26.37
2023-05-07T02:41:35.087Z,34.80
2023-05-07T02:44:04.150Z,33.90
2023-05-07T02:46:33.262Z,32.27
2023-05-07T02:49:07.240Z,34.63
2023-05-07T02:51:37.109Z,31.80
2023-05-07T02:54:10.668Z,35.90
2023-05-07T02:56:40.810Z,29.97
2023-05-07T02:59:09.663Z,28.70
2023-05-07T03:01:42.974Z,33.93
2023-05-07T03:04:12.341Z,29.83
2023-05-07T03:06:40.992Z,36.07
2023-05-07T03:09:10.058Z,36.13
2023-05-07T03:11:40.494Z,36.83
2023-05-07T03:14:09.074Z,31.87
2023-05-07T03:16:37.963Z,34.77
2023-05-07T03:19:06.912Z,32.97
2023-05-07T03:21:35.803Z,32.30
2023-05-07T03:24:04.618Z,32.73
2023-05-07T03:26:33.151Z,32.73
2023-05-07T03:29:03.664Z,25.77
2023-05-07T03:31:32.867Z,26.00
2023-05-07T03:34:03.160Z,26.00
2023-05-07T03:36:31.960Z,28.47
2023-05-07T03:39:01.230Z,31.70
2023-05-07T03:41:38.186Z,29.70
2023-05-07T03:44:08.508Z,31.17
2023-05-07T03:46:37.489Z,33.10
2023-05-07T03:49:06.467Z,32.83
2023-05-07T03:51:37.215Z,29.90
2023-05-07T03:54:07.512Z,33.77
2023-05-07T03:56:36.768Z,34.10
2023-05-07T03:59:05.755Z,30.83
2023-05-07T04:01:38.698Z,30.73
2023-05-07T04:04:07.577Z,30.83
2023-05-07T04:06:38.716Z,35.00
2023-05-07T04:09:07.955Z,27.97
2023-05-07T04:11:38.432Z,38.03
2023-05-07T04:14:07.942Z,30.33
2023-05-07T04:16:39.590Z,32.40
2023-05-07T04:19:10.164Z,33.47
2023-05-07T04:21:41.420Z,31.20
2023-05-07T04:24:10.523Z,27.20
2023-05-07T04:26:39.299Z,29.67
2023-05-07T04:29:10.143Z,27.83
2023-05-07T04:31:40.581Z,33.07
2023-05-07T04:34:10.385Z,29.83
2023-05-07T04:36:41.116Z,29.73
2023-05-07T04:39:13.527Z,29.70
2023-05-07T04:41:45.603Z,27.40
2023-05-07T04:44:15.875Z,29.17
2023-05-07T04:46:47.098Z,34.03
2023-05-07T04:49:16.653Z,28.07
2023-05-07T04:51:46.041Z,33.57
2023-05-07T04:54:17.206Z,30.00
2023-05-07T04:56:46.577Z,26.07
2023-05-07T04:59:15.910Z,29.57
2023-05-07T05:01:44.889Z,32.27
2023-05-07T05:04:15.512Z,28.37
2023-05-07T05:06:45.556Z,24.90
2023-05-07T05:09:16.180Z,26.47
2023-05-07T05:11:45.176Z,26.00
2023-05-07T05:14:14.371Z,26.40
2023-05-07T05:16:43.395Z,27.27
2023-05-07T05:19:12.437Z,26.47
2023-05-07T05:21:43.568Z,24.60
2023-05-07T05:24:12.972Z,23.70
2023-05-07T05:26:42.135Z,25.60
2023-05-07T05:29:11.452Z,23.63
2023-05-07T05:31:43.317Z,22.97
2023-05-07T05:34:12.738Z,22.00
2023-05-07T05:36:41.665Z,23.27
2023-05-07T05:39:11.714Z,24.53
2023-05-07T05:41:40.912Z,21.97
2023-05-07T05:44:10.421Z,17.77
2023-05-07T05:46:39.716Z,17.70
2023-05-07T05:49:08.938Z,20.00
2023-05-07T05:51:37.759Z,18.80
2023-05-07T05:54:07.257Z,19.13
2023-05-07T05:56:39.849Z,17.80
2023-05-07T05:59:09.779Z,21.37
2023-05-07T06:01:38.931Z,19.40
2023-05-07T06:04:07.638Z,15.87
2023-05-07T06:06:36.975Z,15.03
2023-05-07T06:09:05.970Z,17.43
2023-05-07T06:11:42.312Z,15.30
2023-05-07T06:14:12.421Z,14.93
2023-05-07T06:16:41.610Z,15.67
2023-05-07T06:19:10.496Z,14.17
2023-05-07T06:21:41.836Z,15.60
2023-05-07T06:24:11.229Z,13.00
2023-05-07T06:26:42.934Z,13.77
2023-05-07T06:29:11.535Z,18.20
2023-05-07T06:31:42.950Z,13.43
2023-05-07T06:34:15.405Z,14.70
2023-05-07T06:36:44.554Z,13.00
2023-05-07T06:39:38.881Z,13.90
2023-05-07T06:42:09.009Z,13.73
2023-05-07T06:44:43.199Z,13.53
2023-05-07T06:47:16.347Z,13.20
2023-05-07T06:49:47.883Z,12.07
2023-05-07T06:52:19.420Z,10.17
2023-05-07T06:54:50.063Z,11.37
2023-05-07T06:57:21.933Z,12.53
2023-05-07T06:59:50.699Z,11.20
2023-05-07T07:02:19.779Z,10.27
2023-05-07T07:04:50.539Z,9.53
2023-05-07T07:07:19.349Z,8.83
2023-05-07T07:09:49.954Z,9.70
2023-05-07T07:12:24.064Z,7.70
2023-05-07T07:14:54.959Z,7.77
2023-05-07T07:17:24.940Z,9.63
2023-05-07T07:19:54.017Z,7.83
2023-05-07T07:22:22.873Z,7.43
2023-05-07T07:24:52.380Z,7.47
2023-05-07T07:27:22.794Z,7.47
2023-05-07T07:29:51.702Z,8.10
2023-05-07T07:32:21.799Z,6.53
2023-05-07T07:34:50.870Z,10.30
2023-05-07T07:37:20.078Z,8.33
2023-05-07T07:39:48.956Z,6.67
2023-05-07T07:42:17.881Z,6.63
2023-05-07T07:44:48.121Z,5.83
2023-05-07T07:47:18.196Z,6.30
2023-05-07T07:49:48.490Z,9.13
2023-05-07T07:52:17.488Z,7.50
2023-05-07T07:54:47.625Z,8.37
2023-05-07T07:57:16.665Z,8.67
2023-05-07T07:59:47.358Z,6.37
2023-05-07T08:02:18.015Z,8.27
2023-05-07T08:04:47.562Z,6.47
2023-05-07T08:07:16.355Z,7.20
2023-05-07T08:09:48.177Z,6.80
2023-05-07T08:12:18.962Z,10.20
2023-05-07T08:14:50.594Z,7.23
2023-05-07T08:17:19.418Z,7.47
2023-05-07T08:19:48.647Z,11.87
2023-05-07T08:22:19.577Z,6.60
2023-05-07T08:24:48.952Z,7.80
2023-05-07T08:27:18.043Z,6.77
2023-05-07T08:29:49.498Z,6.97
2023-05-07T08:32:20.215Z,11.17
2023-05-07T08:34:48.914Z,7.17
2023-05-07T08:37:17.487Z,6.13
2023-05-07T08:39:47.124Z,6.00
2023-05-07T08:42:25.595Z,6.83
2023-05-07T08:45:00.494Z,9.07
2023-05-07T08:47:36.914Z,9.20
2023-05-07T08:50:07.381Z,6.40
2023-05-07T08:52:37.706Z,4.93
2023-05-07T08:55:07.754Z,8.63
2023-05-07T08:57:40.077Z,7.20
2023-05-07T09:00:16.679Z,6.63
2023-05-07T09:02:46.735Z,7.83
2023-05-07T09:05:16.006Z,6.13
2023-05-07T09:07:45.085Z,7.03
2023-05-07T09:10:16.583Z,5.17
2023-05-07T09:12:49.570Z,7.37
2023-05-07T09:15:20.646Z,5.77
2023-05-07T09:17:49.484Z,6.00
2023-05-07T09:20:19.470Z,8.80
2023-05-07T09:22:49.198Z,8.10
2023-05-07T09:25:31.068Z,6.33
2023-05-07T09:28:02.472Z,7.33
2023-05-07T09:30:33.877Z,6.33
2023-05-07T09:33:06.260Z,5.13
2023-05-07T09:35:40.014Z,9.20
2023-05-07T09:38:15.853Z,7.47
2023-05-07T09:40:44.758Z,8.27
2023-05-07T09:43:16.519Z,9.00
2023-05-07T09:45:53.191Z,4.30
2023-05-07T09:48:25.523Z,9.43
2023-05-07T09:50:59.910Z,5.33
2023-05-07T09:53:33.443Z,9.03
2023-05-07T09:56:05.718Z,5.10
2023-05-07T09:58:40.451Z,6.27
2023-05-07T10:01:12.949Z,6.30
2023-05-07T10:03:44.576Z,5.10
2023-05-07T10:06:15.344Z,8.37
2023-05-07T10:08:45.467Z,5.67
2023-05-07T10:11:17.137Z,6.03
2023-05-07T10:13:48.865Z,4.40
2023-05-07T10:16:20.626Z,6.53
2023-05-07T10:18:53.776Z,5.00
2023-05-07T10:21:26.940Z,3.97
2023-05-07T10:24:02.644Z,4.77
2023-05-07T10:26:36.244Z,4.07
2023-05-07T10:29:10.527Z,3.60
2023-05-07T10:31:56.730Z,4.03
2023-05-07T10:34:32.825Z,4.43
2023-05-07T10:37:02.917Z,3.53
2023-05-07T10:39:32.804Z,5.93
2023-05-07T10:42:11.370Z,2.40
2023-05-07T10:44:42.436Z,4.07
2023-05-07T10:47:20.037Z,3.83
2023-05-07T10:50:24.740Z,4.03
2023-05-07T10:53:29.595Z,4.13
2023-05-07T10:56:30.034Z,2.23
2023-05-07T10:59:42.009Z,3.70
2023-05-07T11:02:24.181Z,3.53
2023-05-07T11:05:21.844Z,3.13
2023-05-07T11:07:58.267Z,3.73
2023-05-07T11:10:53.345Z,2.97
2023-05-07T11:13:51.773Z,3.70
2023-05-07T11:16:39.730Z,3.97
2023-05-07T11:19:54.259Z,7.00
2023-05-07T11:22:48.947Z,3.33
2023-05-07T11:25:24.741Z,4.33
2023-05-07T11:28:07.923Z,4.90
2023-05-07T11:30:37.567Z,2.43
2023-05-07T11:33:08.666Z,4.13
2023-05-07T11:35:39.707Z,5.90
2023-05-07T11:38:11.140Z,4.03
2023-05-07T11:40:51.928Z,2.10
2023-05-07T11:43:20.629Z,3.30
2023-05-07T11:45:49.297Z,8.80
2023-05-07T11:48:19.135Z,4.73
2023-05-07T11:50:56.862Z,4.23
2023-05-07T11:53:27.724Z,4.07
2023-05-07T11:55:57.785Z,4.80
2023-05-07T11:58:28.143Z,3.10
2023-05-07T12:00:57.203Z,6.47
2023-05-07T12:03:25.884Z,4.23
2023-05-07T12:05:56.288Z,3.00
2023-05-07T12:08:25.123Z,4.30
2023-05-07T12:10:53.769Z,3.67
2023-05-07T12:13:25.407Z,5.67
2023-05-07T12:15:54.229Z,5.20
2023-05-07T12:18:23.802Z,3.33
2023-05-07T12:20:52.680Z,5.80
2023-05-07T12:23:23.815Z,5.87
2023-05-07T12:25:52.515Z,5.33
2023-05-07T12:28:21.958Z,7.37
2023-05-07T12:30:52.759Z,8.97
2023-05-07T12:33:26.045Z,6.97
2023-05-07T12:35:57.489Z,6.63
2023-05-07T12:38:27.517Z,3.47
2023-05-07T12:40:57.090Z,4.17
2023-05-07T12:43:28.623Z,5.70
2023-05-07T12:45:58.906Z,3.70
2023-05-07T12:48:28.288Z,3.80
2023-05-07T12:50:57.910Z,2.57
2023-05-07T12:53:29.301Z,4.47
2023-05-07T12:56:00.710Z,3.53
2023-05-07T12:58:31.754Z,1.30
2023-05-07T13:01:06.422Z,3.03
2023-05-07T13:03:36.703Z,2.67
2023-05-07T13:06:07.488Z,4.13
2023-05-07T13:08:41.513Z,3.57
2023-05-07T13:11:11.706Z,1.90
2023-05-07T13:13:41.615Z,2.17
2023-05-07T13:16:11.629Z,2.87
2023-05-07T13:18:41.737Z,2.37
2023-05-07T13:21:11.237Z,1.70
2023-05-07T13:23:41.988Z,2.53
2023-05-07T13:26:24.805Z,3.33
2023-05-07T13:28:55.777Z,3.63
2023-05-07T13:31:24.916Z,2.03
2023-05-07T13:33:53.973Z,3.53
2023-05-07T13:36:22.828Z,3.07
2023-05-07T13:38:53.496Z,4.57
2023-05-07T13:41:22.272Z,2.00
2023-05-07T13:43:51.272Z,3.30
2023-05-07T13:46:20.022Z,3.07
2023-05-07T13:48:48.691Z,3.63
2023-05-07T13:51:18.052Z,3.10
2023-05-07T13:53:46.999Z,2.20
2023-05-07T13:56:18.059Z,3.27
2023-05-07T13:58:58.768Z,2.77
2023-05-07T14:01:28.950Z,2.73
2023-05-07T14:03:59.255Z,4.37
2023-05-07T14:06:28.315Z,1.77
2023-05-07T14:08:59.672Z,3.20
2023-05-07T14:11:29.935Z,2.77
2023-05-07T14:13:59.658Z,4.67
2023-05-07T14:16:28.648Z,8.30
2023-05-07T14:18:58.471Z,4.20
2023-05-07T14:21:27.908Z,4.37
2023-05-07T14:23:57.773Z,5.67
2023-05-07T14:26:28.412Z,4.53
2023-05-07T14:28:59.588Z,4.07
2023-05-07T14:31:28.854Z,6.13
2023-05-07T14:33:59.093Z,4.50
2023-05-07T14:36:28.657Z,3.80
2023-05-07T14:38:58.161Z,4.30
2023-05-07T14:41:27.296Z,5.47
2023-05-07T14:43:56.181Z,3.87
2023-05-07T14:46:27.513Z,6.73
2023-05-07T14:48:56.394Z,3.23
2023-05-07T14:51:25.174Z,3.03
2023-05-07T14:53:53.879Z,2.87
2023-05-07T14:56:22.906Z,4.73
2023-05-07T14:58:52.042Z,2.73
2023-05-07T15:01:20.901Z,2.40
2023-05-07T15:03:51.284Z,4.37
2023-05-07T15:06:20.208Z,1.60
2023-05-07T15:08:49.873Z,4.57
2023-05-07T15:11:18.843Z,4.47
2023-05-07T15:13:47.551Z,3.93
2023-05-07T15:16:16.414Z,5.40
2023-05-07T15:18:45.583Z,3.33
2023-05-07T15:21:16.030Z,1.70
2023-05-07T15:23:45.985Z,3.87
2023-05-07T15:26:14.927Z,3.73
2023-05-07T15:28:43.485Z,3.33
2023-05-07T15:31:12.103Z,3.93
2023-05-07T15:33:41.957Z,2.83
2023-05-07T15:36:11.200Z,2.40
2023-05-07T15:38:41.510Z,4.40
2023-05-07T15:41:10.530Z,2.93
2023-05-07T15:43:46.758Z,3.60
2023-05-07T15:46:20.764Z,4.70
2023-05-07T15:48:49.647Z,3.77
2023-05-07T15:51:18.981Z,3.20
2023-05-07T15:53:49.208Z,5.27
2023-05-07T15:56:17.929Z,4.33
2023-05-07T15:58:46.996Z,5.50
2023-05-07T16:01:16.275Z,3.03
2023-05-07T16:03:45.557Z,3.03
2023-05-07T16:06:14.480Z,3.13
2023-05-07T16:08:44.288Z,4.40
2023-05-07T16:11:15.048Z,4.53
2023-05-07T16:13:43.928Z,4.33
2023-05-07T16:16:13.669Z,3.20
2023-05-07T16:18:42.539Z,8.73
2023-05-07T16:21:11.362Z,5.17
2023-05-07T16:23:40.506Z,8.47
2023-05-07T16:26:09.248Z,2.87
2023-05-07T16:28:39.225Z,2.77
2023-05-07T16:31:10.186Z,3.97
2023-05-07T16:33:41.094Z,3.77
2023-05-07T16:36:10.118Z,2.17
2023-05-07T16:38:38.887Z,5.50
2023-05-07T16:41:10.871Z,2.47
2023-05-07T16:43:42.420Z,4.40
2023-05-07T16:46:11.076Z,4.60
2023-05-07T16:48:39.750Z,1.70
2023-05-07T16:51:09.037Z,5.57
2023-05-07T16:53:37.793Z,5.00
2023-05-07T16:56:07.398Z,9.60
2023-05-07T16:58:36.499Z,5.03
2023-05-07T17:01:07.394Z,4.07
2023-05-07T17:03:36.659Z,3.23
2023-05-07T17:06:09.783Z,3.60
2023-05-07T17:08:39.474Z,5.30
2023-05-07T17:11:09.680Z,4.90
2023-05-07T17:13:38.470Z,10.07
2023-05-07T17:16:08.651Z,2.77
2023-05-07T17:18:39.581Z,3.03
2023-05-07T17:21:08.241Z,3.70
2023-05-07T17:23:37.032Z,2.70
2023-05-07T17:26:12.608Z,1.97
2023-05-07T17:28:42.364Z,2.37
2023-05-07T17:31:12.677Z,3.70
2023-05-07T17:33:41.904Z,2.43
2023-05-07T17:36:10.665Z,2.03
2023-05-07T17:38:39.275Z,2.10
2023-05-07T17:41:08.136Z,2.80
2023-05-07T17:43:37.108Z,1.50
2023-05-07T17:46:05.845Z,5.27
2023-05-07T17:48:37.282Z,1.93
2023-05-07T17:51:06.179Z,1.70
2023-05-07T17:53:35.017Z,3.20
2023-05-07T17:56:03.685Z,2.80
2023-05-07T17:58:33.828Z,5.30
2023-05-07T18:01:05.507Z,2.00
2023-05-07T18:03:36.824Z,3.70
2023-05-07T18:06:07.426Z,2.53
2023-05-07T18:08:37.392Z,2.97
2023-05-07T18:11:06.586Z,3.83
2023-05-07T18:13:37.500Z,3.70
2023-05-07T18:16:06.587Z,2.80
2023-05-07T18:18:36.784Z,2.73
2023-05-07T18:21:05.995Z,2.90
2023-05-07T18:23:36.857Z,4.80
2023-05-07T18:26:08.245Z,1.90
2023-05-07T18:28:37.224Z,2.33
2023-05-07T18:31:06.192Z,5.37
2023-05-07T18:33:36.359Z,4.23
2023-05-07T18:36:05.450Z,2.87
2023-05-07T18:38:34.315Z,2.10
2023-05-07T18:41:04.475Z,4.07
2023-05-07T18:43:34.086Z,2.90
2023-05-07T18:46:03.120Z,2.43
2023-05-07T18:48:32.162Z,3.57
2023-05-07T18:51:03.392Z,4.73
2023-05-07T18:53:33.295Z,3.23
2023-05-07T18:56:02.196Z,3.40
2023-05-07T18:58:31.352Z,3.70
2023-05-07T19:01:00.155Z,3.07
2023-05-07T19:03:29.471Z,4.20
2023-05-07T19:05:58.452Z,5.97
2023-05-07T19:08:28.635Z,3.97
2023-05-07T19:10:57.626Z,5.17
2023-05-07T19:13:27.927Z,9.03
2023-05-07T19:15:57.148Z,5.90
2023-05-07T19:18:25.895Z,8.00
2023-05-07T19:20:55.408Z,7.03
2023-05-07T19:23:24.790Z,6.27
2023-05-07T19:25:55.287Z,7.63
2023-05-07T19:28:27.088Z,5.10
2023-05-07T19:30:56.132Z,9.73
2023-05-07T19:33:25.643Z,8.07
2023-05-07T19:35:58.564Z,7.37
2023-05-07T19:38:27.979Z,10.73
2023-05-07T19:41:00.569Z,7.77
2023-05-07T19:43:31.318Z,6.73
2023-05-07T19:46:01.662Z,6.27
2023-05-07T19:48:30.563Z,9.03
2023-05-07T19:51:00.384Z,9.60
2023-05-07T19:53:30.625Z,8.20
2023-05-07T19:56:06.375Z,10.07
2023-05-07T19:58:38.791Z,10.57
2023-05-07T20:01:09.831Z,10.30
2023-05-07T20:03:38.973Z,10.70
2023-05-07T20:06:08.074Z,10.17
2023-05-07T20:08:37.297Z,10.23
2023-05-07T20:11:11.055Z,10.00
2023-05-07T20:13:40.703Z,8.20
2023-05-07T20:16:09.739Z,10.77
2023-05-07T20:18:38.745Z,7.90
2023-05-07T20:21:07.888Z,9.23
2023-05-07T20:23:36.727Z,12.57
2023-05-07T20:26:06.314Z,8.93
2023-05-07T20:28:36.854Z,9.83
2023-05-07T20:31:06.004Z,9.83
2023-05-07T20:33:34.801Z,10.43
2023-05-07T20:36:03.980Z,8.67
2023-05-07T20:38:34.169Z,9.43
2023-05-07T20:41:07.938Z,10.43
2023-05-07T20:43:38.962Z,10.07
2023-05-07T20:46:08.730Z,12.50
2023-05-07T20:48:40.978Z,10.77
2023-05-07T20:51:10.903Z,11.00
2023-05-07T20:53:41.103Z,13.40
2023-05-07T20:56:10.194Z,13.03
2023-05-07T20:58:40.624Z,11.30
2023-05-07T21:01:09.540Z,11.03
2023-05-07T21:03:38.640Z,12.23
2023-05-07T21:06:07.628Z,10.97
2023-05-07T21:08:36.739Z,13.20
2023-05-07T21:11:06.233Z,15.63
2023-05-07T21:13:35.211Z,9.73
2023-05-07T21:16:05.927Z,8.70
2023-05-07T21:18:34.967Z,8.60
2023-05-07T21:21:03.834Z,10.53
2023-05-07T21:23:33.015Z,16.63
2023-05-07T21:26:01.744Z,13.83
2023-05-07T21:28:30.621Z,10.83
2023-05-07T21:30:59.667Z,12.60
2023-05-07T21:33:29.714Z,13.17
2023-05-07T21:35:58.639Z,11.90
2023-05-07T21:38:27.922Z,12.57
2023-05-07T21:40:56.702Z,13.87
2023-05-07T21:43:25.414Z,12.87
2023-05-07T21:45:54.158Z,11.50
2023-05-07T21:48:23.305Z,14.07
2023-05-07T21:51:03.705Z,11.83
2023-05-07T21:53:32.614Z,10.37
2023-05-07T21:56:02.482Z,13.40
2023-05-07T21:58:32.283Z,9.60
2023-05-07T22:01:02.015Z,11.40
2023-05-07T22:03:31.078Z,12.00
2023-05-07T22:05:59.846Z,11.43
2023-05-07T22:08:29.852Z,10.37
2023-05-07T22:10:58.541Z,11.93
2023-05-07T22:13:27.514Z,12.97
2023-05-07T22:15:58.389Z,13.33
2023-05-07T22:18:27.780Z,14.83
2023-05-07T22:20:59.350Z,16.93
2023-05-07T22:23:29.549Z,15.60
2023-05-07T22:25:59.075Z,16.17
2023-05-07T22:28:27.952Z,19.17
2023-05-07T22:30:56.757Z,14.70
2023-05-07T22:33:25.613Z,15.83
2023-05-07T22:35:54.647Z,15.20
2023-05-07T22:38:23.301Z,17.43
2023-05-07T22:40:53.313Z,15.80
2023-05-07T22:43:21.913Z,12.90
2023-05-07T22:45:50.510Z,14.20
2023-05-07T22:48:19.514Z,14.13
2023-05-07T22:50:48.083Z,13.37
2023-05-07T22:53:16.713Z,18.37
2023-05-07T22:55:45.194Z,20.20
2023-05-07T22:58:15.447Z,21.00
2023-05-07T23:00:44.378Z,24.07
2023-05-07T23:03:13.121Z,23.40
2023-05-07T23:05:41.942Z,23.70
2023-05-07T23:08:10.520Z,23.60
2023-05-07T23:10:39.212Z,24.13
2023-05-07T23:13:09.549Z,23.20
2023-05-07T23:15:40.024Z,24.07
2023-05-07T23:18:08.714Z,21.03
2023-05-07T23:20:37.347Z,22.60
2023-05-07T23:23:05.962Z,22.60
2023-05-07T23:25:34.814Z,19.37
2023-05-07T23:28:03.465Z,27.07
2023-05-07T23:30:32.184Z,24.80
2023-05-07T23:33:02.197Z,19.87
2023-05-07T23:35:30.796Z,20.67
2023-05-07T23:38:00.352Z,22.63
2023-05-07T23:40:29.126Z,24.77
2023-05-07T23:42:57.764Z,18.23
2023-05-07T23:45:27.023Z,20.40
2023-05-07T23:47:56.672Z,23.77
2023-05-07T23:50:26.631Z,35.67
2023-05-07T23:52:55.246Z,19.17
2023-05-07T23:55:23.865Z,20.60
2023-05-07T23:57:52.530Z,24.67
